Time;durP1;ratioP1;P1;durP2;ratioP2;P2;SDS_P1;SDS_P2;PMS_P1;PMS_P2;Temp;Humidity;BMP_temperature;BMP_pressure;BME280_temperature;BME280_humidity;BME280_pressure;Samples;Min_cycle;Max_cycle;Signal;HPM_P1;HPM_P2
2022/10/21 04:00:58;;;;;;;17.13;10.53;;;;;;;;;;5719531;23;20501;-80
2022/10/21 04:03:24;;;;;;;14.70;10.10;;;;;;;;;;5013544;28;20432;-79
2022/10/21 04:05:50;;;;;;;18.10;11.57;;;7.30;96.30;;;;;;5012983;28;20392;-79
2022/10/21 04:08:15;;;;;;;12.20;9.67;;;7.30;96.30;;;;;;5012438;28;20777;-79
2022/10/21 04:10:41;;;;;;;17.30;8.90;;;7.30;96.30;;;;;;5013037;28;20204;-79
2022/10/21 04:13:07;;;;;;;13.17;10.73;;;;;;;;;;4995387;28;20184;-79
2022/10/21 04:15:32;;;;;;;16.60;10.33;;;7.30;96.30;;;;;;4998254;28;20181;-79
2022/10/21 04:17:58;;;;;;;15.53;10.50;;;;;;;;;;5017195;28;20510;-79
2022/10/21 04:33:14;;;;;;;15.30;10.00;;;;;;;;;;4971990;28;20528;-79
2022/10/21 04:35:40;;;;;;;10.87;8.93;;;7.30;96.30;;;;;;4971923;28;20825;-79
2022/10/21 04:38:06;;;;;;;14.20;10.93;;;7.40;96.30;;;;;;4991622;28;20552;-79
2022/10/21 04:40:31;;;;;;;18.83;9.97;;;7.50;96.30;;;;;;4979130;28;20197;-79
2022/10/21 04:42:57;;;;;;;11.90;8.77;;;;;;;;;;4979945;28;20424;-80
2022/10/21 04:45:23;;;;;;;16.30;10.00;;;;;;;;;;4980337;28;20255;-79
2022/10/21 04:47:49;;;;;;;12.73;10.43;;;;;;;;;;4979591;28;20178;-80
2022/10/21 04:50:15;;;;;;;14.00;10.70;;;7.30;96.30;;;;;;4997926;28;20511;-80
2022/10/21 04:52:40;;;;;;;16.13;10.07;;;7.20;96.30;;;;;;4980265;28;20216;-80
2022/10/21 04:55:06;;;;;;;19.47;12.10;;;7.20;96.30;;;;;;4980596;28;20232;-81
2022/10/21 04:57:32;;;;;;;15.23;10.47;;;7.10;96.30;;;;;;4995754;28;20259;-79
2022/10/21 04:59:58;;;;;;;13.90;11.00;;;;;;;;;;4978457;28;20507;-78
2022/10/21 05:02:24;;;;;;;14.50;10.60;;;;;;;;;;4996191;28;20194;-79
2022/10/21 05:04:50;;;;;;;14.97;10.33;;;;;;;;;;4978819;28;20181;-79
2022/10/21 05:07:15;;;;;;;13.33;11.90;;;7.00;96.30;;;;;;4995633;28;20401;-78
2022/10/21 05:09:41;;;;;;;11.53;10.30;;;6.90;96.30;;;;;;4978631;28;20177;-78
2022/10/21 05:12:06;;;;;;;15.87;11.43;;;6.90;96.30;;;;;;4996109;28;20564;-79
2022/10/21 05:14:32;;;;;;;13.90;11.00;;;;;;;;;;4978674;28;20188;-79
2022/10/21 05:16:58;;;;;;;19.67;12.60;;;;;;;;;;4977854;28;20296;-79
2022/10/21 05:19:24;;;;;;;15.93;9.60;;;;;;;;;;4978622;28;20849;-80
2022/10/21 05:21:50;;;;;;;15.93;10.67;;;6.90;96.30;;;;;;4983602;28;20503;-80
2022/10/21 05:24:16;;;;;;;13.03;10.87;;;6.90;96.30;;;;;;4958999;28;20413;-78
2022/10/21 05:26:42;;;;;;;17.70;11.80;;;;;;;;;;4958750;28;20171;-79
2022/10/21 05:29:07;;;;;;;14.90;10.90;;;7.00;96.30;;;;;;4958792;28;20416;-80
2022/10/21 05:31:33;;;;;;;14.90;10.77;;;;;;;;;;4989890;28;20464;-80
2022/10/21 05:33:59;;;;;;;16.57;10.47;;;;;;;;;;4994596;28;20209;-80
2022/10/21 05:36:25;;;;;;;17.97;12.00;;;;;;;;;;4995853;28;20824;-79
2022/10/21 05:38:51;;;;;;;11.37;10.10;;;;;;;;;;4994003;28;20205;-79
2022/10/21 05:41:17;;;;;;;16.27;11.50;;;;;;;;;;4994458;28;20436;-78
2022/10/21 05:43:43;;;;;;;14.20;8.80;;;7.00;96.30;;;;;;4995998;28;20936;-79
2022/10/21 05:46:09;;;;;;;14.93;11.07;;;;;;;;;;4994481;28;20451;-79
2022/10/21 05:48:36;;;;;;;15.47;11.10;;;7.10;96.30;;;;;;4993252;28;20174;-79
2022/10/21 05:51:02;;;;;;;17.40;12.93;;;7.20;96.30;;;;;;4995958;28;20495;-79
2022/10/21 05:53:28;;;;;;;14.70;10.50;;;7.20;96.30;;;;;;4994960;28;20543;-79
2022/10/21 05:55:59;;;;;;;15.70;11.77;;;7.20;96.30;;;;;;4995151;28;20851;-80
2022/10/21 05:58:25;;;;;;;17.30;13.20;;;7.30;96.30;;;;;;4997305;28;20276;-81
2022/10/21 06:00:54;;;;;;;16.10;12.40;;;;;;;;;;4995749;28;20433;-81
2022/10/21 06:03:22;;;;;;;13.63;10.67;;;7.30;96.30;;;;;;4997793;28;20405;-81
2022/10/21 06:05:48;;;;;;;13.73;11.57;;;7.40;96.30;;;;;;4997821;28;20493;-81
2022/10/21 06:08:14;;;;;;;18.30;11.90;;;7.50;96.30;;;;;;4995139;28;20420;-81
2022/10/21 06:10:40;;;;;;;15.47;11.13;;;;;;;;;;4998853;28;20483;-82
2022/10/21 06:13:05;;;;;;;15.00;11.40;;;7.50;96.30;;;;;;4996466;28;20184;-81
2022/10/21 06:15:31;;;;;;;16.67;12.10;;;7.60;96.30;;;;;;4995357;28;20416;-82
2022/10/21 06:17:56;;;;;;;19.80;13.10;;;7.70;96.30;;;;;;4993682;28;20291;-81
2022/10/21 06:20:22;;;;;;;12.83;11.00;;;7.90;96.30;;;;;;4995229;28;20173;-81
2022/10/21 06:22:47;;;;;;;16.70;11.77;;;8.10;96.30;;;;;;4994363;28;20185;-81
2022/10/21 06:25:13;;;;;;;21.20;12.17;;;;;;;;;;4994009;28;20173;-82
2022/10/21 06:27:39;;;;;;;14.37;11.10;;;8.30;96.30;;;;;;4993653;28;20248;-82
2022/10/21 06:30:05;;;;;;;16.40;12.33;;;8.30;96.30;;;;;;4993835;28;21157;-82
2022/10/21 06:32:31;;;;;;;16.20;12.03;;;;;;;;;;4981894;28;20876;-81
2022/10/21 06:34:57;;;;;;;15.33;12.37;;;8.40;96.30;;;;;;4974208;28;20935;-80
2022/10/21 06:37:23;;;;;;;12.83;10.47;;;8.40;96.30;;;;;;4974776;28;20563;-81
2022/10/21 06:39:48;;;;;;;15.03;11.40;;;8.70;96.30;;;;;;4995175;28;20181;-81
2022/10/21 06:42:14;;;;;;;12.90;11.47;;;8.70;96.30;;;;;;4993240;28;20256;-80
2022/10/21 06:44:40;;;;;;;15.73;10.73;;;8.90;96.30;;;;;;4994524;28;20660;-79
2022/10/21 06:47:06;;;;;;;13.07;7.60;;;8.80;96.30;;;;;;4994072;28;20413;-81
2022/10/21 06:49:32;;;;;;;13.13;9.50;;;8.80;96.30;;;;;;4994484;28;20491;-79
2022/10/21 06:51:58;;;;;;;11.10;8.87;;;;;;;;;;4985935;28;20200;-79
2022/10/21 06:54:24;;;;;;;16.20;10.30;;;;;;;;;;4978112;28;20881;-80
2022/10/21 06:56:49;;;;;;;12.20;10.80;;;8.90;96.30;;;;;;4983138;28;20406;-80
2022/10/21 06:59:15;;;;;;;14.67;13.07;;;8.90;96.30;;;;;;4982156;28;20480;-80
2022/10/21 07:01:40;;;;;;;23.03;17.87;;;8.90;96.30;;;;;;4973025;28;20194;-81
2022/10/21 07:04:06;;;;;;;16.30;12.83;;;;;;;;;;4976914;28;20185;-82
2022/10/21 07:06:33;;;;;;;13.67;11.00;;;;;;;;;;4992759;28;20173;-80
2022/10/21 07:08:58;;;;;;;12.53;9.73;;;8.90;96.30;;;;;;4991694;28;20984;-80
2022/10/21 07:11:24;;;;;;;13.00;9.50;;;8.80;96.30;;;;;;4993932;28;20512;-79
2022/10/21 07:13:50;;;;;;;13.10;10.43;;;;;;;;;;4994090;28;20188;-80
2022/10/21 07:16:23;;;;;;;11.20;9.67;;;;;;;;;;4994116;28;20409;-81
2022/10/21 07:18:48;;;;;;;15.93;9.80;;;;;;;;;;4984027;28;20198;-81
2022/10/21 07:21:17;;;;;;;11.90;9.83;;;9.30;96.30;;;;;;4974296;28;20432;-80
2022/10/21 07:23:47;;;;;;;10.63;9.40;;;9.50;96.30;;;;;;4978687;28;20935;-79
2022/10/21 07:26:13;;;;;;;26.97;10.80;;;9.40;96.30;;;;;;4978792;28;20409;-79
2022/10/21 07:28:41;;;;;;;15.80;10.53;;;9.40;96.30;;;;;;4973758;28;20421;-79
2022/10/21 07:31:07;;;;;;;13.40;10.07;;;9.40;96.30;;;;;;4972713;28;20976;-79
2022/10/21 07:33:35;;;;;;;18.00;11.10;;;9.30;96.30;;;;;;4974264;28;20402;-81
2022/10/21 07:36:17;;;;;;;15.10;11.60;;;9.10;96.30;;;;;;4977848;28;20429;-80
2022/10/21 07:38:45;;;;;;;12.80;10.27;;;9.20;96.30;;;;;;4975213;28;20446;-80
2022/10/21 07:41:32;;;;;;;14.17;8.67;;;9.10;96.30;;;;;;4989726;28;20440;-80
2022/10/21 07:43:58;;;;;;;15.27;11.83;;;;;;;;;;4993712;28;20983;-80
2022/10/21 07:46:26;;;;;;;11.87;9.27;;;9.30;96.30;;;;;;4988732;28;20414;-80
2022/10/21 07:48:52;;;;;;;15.20;11.10;;;9.40;96.30;;;;;;4975161;28;20493;-81
2022/10/21 07:51:20;;;;;;;15.93;10.90;;;9.40;96.30;;;;;;4973076;28;20961;-81
2022/10/21 07:53:48;;;;;;;13.57;10.80;;;9.30;96.30;;;;;;4991407;28;20539;-81
2022/10/21 07:56:19;;;;;;;26.07;20.63;;;9.30;96.30;;;;;;4994059;28;20427;-81
2022/10/21 07:58:45;;;;;;;17.60;12.07;;;9.30;96.30;;;;;;4991440;28;20595;-80
2022/10/21 08:01:12;;;;;;;12.80;10.17;;;9.40;96.30;;;;;;4978124;28;20452;-80
2022/10/21 08:03:38;;;;;;;16.63;11.70;;;;;;;;;;4991194;28;20425;-80
2022/10/21 08:06:06;;;;;;;11.47;8.50;;;9.50;96.30;;;;;;4972840;28;20409;-79
2022/10/21 08:08:32;;;;;;;15.67;11.37;;;9.70;96.30;;;;;;4986953;28;20774;-80
2022/10/21 08:10:57;;;;;;;18.70;10.20;;;9.90;96.30;;;;;;4991447;28;20960;-80
2022/10/21 08:13:23;;;;;;;12.40;8.77;;;10.10;96.30;;;;;;4984831;28;20181;-80
2022/10/21 08:15:52;;;;;;;15.33;11.10;;;10.20;96.30;;;;;;4974998;28;20190;-81
2022/10/21 08:18:18;;;;;;;12.90;9.87;;;10.50;96.30;;;;;;4977061;28;20353;-81
2022/10/21 08:20:45;;;;;;;13.93;10.33;;;;;;;;;;4976588;28;20449;-81
2022/10/21 08:23:12;;;;;;;10.63;8.63;;;10.70;96.30;;;;;;4974871;28;20417;-81
2022/10/21 08:25:38;;;;;;;14.00;9.93;;;10.80;96.30;;;;;;4973842;28;20834;-80
2022/10/21 08:28:05;;;;;;;12.40;8.80;;;11.00;96.30;;;;;;4971952;28;20516;-81
2022/10/21 08:30:32;;;;;;;16.33;9.67;;;11.00;96.30;;;;;;4974017;28;20666;-80
2022/10/21 08:32:58;;;;;;;11.03;8.20;;;11.10;96.30;;;;;;4956626;28;20512;-80
2022/10/21 08:35:25;;;;;;;11.73;8.90;;;11.30;96.30;;;;;;4973862;28;20444;-80
2022/10/21 08:37:51;;;;;;;13.13;9.50;;;11.40;96.30;;;;;;4971983;28;20461;-80
2022/10/21 08:40:17;;;;;;;10.13;8.17;;;11.50;96.30;;;;;;4972556;28;20490;-80
2022/10/21 08:42:44;;;;;;;8.93;8.03;;;11.70;96.30;;;;;;4974023;28;20171;-80
2022/10/21 08:45:37;;;;;;;12.20;7.83;;;11.70;96.30;;;;;;4972737;28;20429;-80
2022/10/21 08:48:05;;;;;;;11.40;8.73;;;11.80;96.30;;;;;;4972234;28;20426;-80
2022/10/21 08:50:37;;;;;;;12.80;8.77;;;11.80;96.30;;;;;;4972840;28;20456;-80
2022/10/21 08:53:16;;;;;;;11.17;8.90;;;11.90;96.30;;;;;;4973168;28;20513;-80
2022/10/21 08:55:43;;;;;;;9.47;7.80;;;11.80;96.30;;;;;;4972556;28;20430;-80
2022/10/21 08:58:18;;;;;;;14.03;9.57;;;11.70;96.30;;;;;;4973125;28;20492;-81
2022/10/21 09:00:46;;;;;;;10.27;8.63;;;11.80;96.30;;;;;;4972226;28;20481;-80
2022/10/21 09:03:19;;;;;;;12.30;8.70;;;11.90;96.30;;;;;;4972432;28;20836;-80
2022/10/21 09:06:15;;;;;;;14.43;8.47;;;12.30;96.30;;;;;;4972638;28;20410;-80
2022/10/21 09:08:51;;;;;;;12.00;8.73;;;12.70;96.30;;;;;;4972077;28;20428;-80
2022/10/21 09:11:23;;;;;;;9.80;7.67;;;12.20;96.30;;;;;;4972734;28;20452;-80
2022/10/21 09:14:25;;;;;;;15.50;10.00;;;12.20;96.30;;;;;;4973745;28;20406;-80
2022/10/21 09:17:07;;;;;;;12.80;9.10;;;12.10;96.30;;;;;;4972943;28;20452;-80
2022/10/21 09:20:10;;;;;;;14.60;7.90;;;11.90;96.30;;;;;;4972469;28;20520;-80
2022/10/21 09:23:21;;;;;;;12.93;8.23;;;12.00;96.30;;;;;;4966890;28;20925;-81
2022/10/21 09:25:56;;;;;;;14.43;10.77;;;12.00;96.30;;;;;;4975725;28;20959;-80
2022/10/21 09:28:24;;;;;;;15.60;10.27;;;12.10;96.30;;;;;;4975184;28;20428;-80
2022/10/21 09:30:50;;;;;;;11.97;9.43;;;12.00;96.30;;;;;;4975583;28;20536;-80
2022/10/21 09:33:33;;;;;;;15.50;11.33;;;12.10;96.30;;;;;;4996277;28;20416;-81
2022/10/21 09:36:21;;;;;;;16.30;10.63;;;12.10;96.30;;;;;;4978997;28;20417;-81
2022/10/21 09:39:02;;;;;;;16.10;10.53;;;12.30;96.30;;;;;;4995390;28;20450;-81
2022/10/21 09:41:37;;;;;;;14.30;10.70;;;12.40;96.30;;;;;;4978739;28;20445;-80
2022/10/21 09:44:03;;;;;;;19.23;11.00;;;12.60;96.30;;;;;;4978590;28;20416;-80
2022/10/21 09:46:28;;;;;;;14.00;10.13;;;12.80;96.30;;;;;;4978500;28;20432;-80
2022/10/21 09:48:55;;;;;;;13.83;10.03;;;12.80;96.30;;;;;;4978127;28;20178;-80
2022/10/21 09:51:31;;;;;;;19.10;9.70;;;12.80;96.30;;;;;;4995845;28;20237;-80
2022/10/21 09:54:06;;;;;;;14.83;9.80;;;12.60;96.30;;;;;;4978578;28;20475;-81
2022/10/21 09:56:45;;;;;;;12.70;9.00;;;12.60;96.30;;;;;;4995526;28;20483;-80
2022/10/21 09:59:14;;;;;;;12.90;10.23;;;12.90;96.30;;;;;;4977912;28;20923;-81
2022/10/21 10:01:42;;;;;;;13.20;10.27;;;13.10;96.30;;;;;;4995396;28;20511;-80
2022/10/21 10:04:21;;;;;;;16.50;10.23;;;12.90;96.30;;;;;;4977892;28;20420;-80
2022/10/21 10:06:46;;;;;;;13.00;9.13;;;12.90;96.30;;;;;;4977258;28;20511;-81
2022/10/21 10:09:23;;;;;;;14.33;11.43;;;13.10;96.30;;;;;;4977958;28;20495;-80
2022/10/21 10:11:49;;;;;;;17.70;11.40;;;;;;;;;;4977751;28;20197;-81
2022/10/21 10:14:26;;;;;;;17.67;10.57;;;13.40;96.30;;;;;;4977768;28;20409;-80
2022/10/21 10:16:52;;;;;;;13.20;9.57;;;13.50;96.30;;;;;;4996073;28;20436;-79
2022/10/21 10:19:24;;;;;;;14.83;10.30;;;13.70;96.30;;;;;;4978888;28;20425;-81
2022/10/21 10:22:13;;;;;;;13.83;10.20;;;13.80;96.30;;;;;;5466207;23;20234;-82
2022/10/21 10:24:43;;;;;;;18.20;10.27;;;13.90;96.30;;;;;;5035594;28;20422;-82
2022/10/21 10:27:22;;;;;;;14.17;10.53;;;13.90;96.30;;;;;;5034902;28;20403;-82
2022/10/21 10:29:59;;;;;;;15.57;11.73;;;13.90;96.30;;;;;;5035664;28;20390;-82
2022/10/21 10:32:30;;;;;;;23.43;14.20;;;13.90;96.30;;;;;;5053831;28;20453;-82
2022/10/21 10:34:59;;;;;;;14.67;11.23;;;14.00;96.30;;;;;;5037341;28;21073;-82
2022/10/21 10:37:36;;;;;;;17.43;9.77;;;14.60;96.30;;;;;;5054703;28;20470;-82
2022/10/21 10:40:07;;;;;;;11.60;9.60;;;14.60;96.30;;;;;;5055129;28;20422;-82
2022/10/21 10:42:36;;;;;;;16.47;9.60;;;14.80;96.30;;;;;;5037350;28;20442;-81
2022/10/21 10:45:19;;;;;;;14.60;10.03;;;14.70;96.30;;;;;;5055721;28;20403;-81
2022/10/21 10:47:55;;;;;;;21.10;10.00;;;14.50;96.30;;;;;;5036617;28;20418;-79
2022/10/21 10:50:40;;;;;;;12.30;10.30;;;14.60;96.30;;;;;;5036679;28;20437;-79
2022/10/21 10:53:26;;;;;;;11.63;8.80;;;14.60;96.30;;;;;;5057322;28;20433;-81
2022/10/21 10:56:16;;;;;;;16.57;10.10;;;14.50;96.30;;;;;;5039068;28;20421;-81
2022/10/21 10:58:51;;;;;;;16.63;9.63;;;14.40;96.30;;;;;;5056186;28;20480;-80
2022/10/21 11:01:29;;;;;;;17.50;9.20;;;14.30;96.30;;;;;;5056024;28;20428;-80
2022/10/21 11:04:01;;;;;;;13.23;10.13;;;14.00;96.30;;;;;;5056039;28;20386;-80
2022/10/21 11:06:35;;;;;;;14.83;9.97;;;13.90;96.30;;;;;;5037974;28;20420;-80
2022/10/21 11:09:02;;;;;;;16.30;10.70;;;13.70;96.30;;;;;;5055863;28;20905;-80
2022/10/21 11:11:37;;;;;;;14.93;9.70;;;13.70;96.30;;;;;;5057281;28;20499;-81
2022/10/21 11:14:03;;;;;;;14.40;11.20;;;;;;;;;;5057088;28;20398;-81
2022/10/21 11:16:43;;;;;;;13.87;11.00;;;13.80;96.30;;;;;;5057427;28;20410;-81
2022/10/21 11:19:27;;;;;;;14.80;10.97;;;13.80;96.30;;;;;;5035743;28;20417;-83
2022/10/21 11:21:59;;;;;;;12.97;10.47;;;13.90;96.30;;;;;;5035336;28;20996;-82
2022/10/21 11:24:44;;;;;;;17.77;11.47;;;13.80;96.30;;;;;;5035774;28;20417;-82
2022/10/21 11:27:36;;;;;;;18.30;10.30;;;13.50;96.30;;;;;;5035522;28;20424;-81
2022/10/21 11:30:18;;;;;;;17.47;11.00;;;13.20;96.30;;;;;;5036531;28;20414;-81
2022/10/21 11:33:01;;;;;;;13.57;10.90;;;13.00;96.30;;;;;;5054375;28;20429;-81
2022/10/21 11:35:40;;;;;;;13.67;10.13;;;12.80;96.30;;;;;;5054023;28;20429;-81
2022/10/21 11:38:18;;;;;;;12.50;10.43;;;12.60;96.30;;;;;;5035883;28;20994;-80
2022/10/21 11:40:44;;;;;;;18.23;11.70;;;12.50;96.30;;;;;;5035095;28;20456;-81
2022/10/21 11:43:26;;;;;;;22.70;12.80;;;12.50;96.30;;;;;;5053680;28;20865;-81
2022/10/21 11:45:56;;;;;;;17.10;11.07;;;12.50;96.30;;;;;;5052935;28;20159;-80
2022/10/21 11:48:54;;;;;;;14.73;11.80;;;12.40;96.30;;;;;;5034983;28;20410;-81
2022/10/21 11:51:44;;;;;;;17.47;11.53;;;12.30;96.30;;;;;;5052852;28;20925;-82
2022/10/21 11:54:34;;;;;;;16.23;11.97;;;12.10;96.30;;;;;;5034709;28;20410;-83
2022/10/21 11:57:11;;;;;;;20.93;13.30;;;12.10;96.30;;;;;;5034595;28;20410;-83
2022/10/21 11:59:40;;;;;;;16.03;11.97;;;12.10;96.30;;;;;;5036171;28;20519;-83
2022/10/21 12:02:14;;;;;;;17.40;12.40;;;12.10;96.30;;;;;;5034761;28;20430;-83
2022/10/21 12:05:08;;;;;;;16.63;12.37;;;12.00;96.30;;;;;;5034734;28;20461;-80
2022/10/21 12:07:41;;;;;;;20.33;13.10;;;11.90;96.30;;;;;;5034462;28;20433;-80
2022/10/21 12:10:29;;;;;;;20.53;12.60;;;11.90;96.30;;;;;;5052295;28;20395;-80
2022/10/21 12:12:58;;;;;;;20.80;12.90;;;11.80;96.30;;;;;;5034576;28;21108;-79
2022/10/21 12:15:37;;;;;;;20.40;14.73;;;11.50;96.30;;;;;;5034336;28;20949;-79
2022/10/21 12:18:04;;;;;;;22.83;14.33;;;11.40;96.30;;;;;;5034373;28;20454;-81
2022/10/21 12:20:31;;;;;;;18.40;12.87;;;11.40;96.30;;;;;;5034530;28;20438;-81
2022/10/21 12:23:03;;;;;;;21.03;14.10;;;11.40;96.30;;;;;;5034788;28;20434;-83
2022/10/21 12:25:54;;;;;;;21.80;15.37;;;11.40;96.30;;;;;;5034743;28;20489;-81
2022/10/21 12:28:41;;;;;;;20.57;13.40;;;11.30;96.30;;;;;;5034424;28;20403;-80
2022/10/21 12:31:29;;;;;;;20.60;14.50;;;11.30;96.30;;;;;;5051984;28;20521;-78
2022/10/21 12:33:55;;;;;;;19.80;14.97;;;11.20;96.30;;;;;;5034136;28;20394;-77
2022/10/21 12:36:24;;;;;;;17.00;13.40;;;11.10;96.30;;;;;;5034026;28;20421;-78
2022/10/21 12:38:55;;;;;;;16.30;11.97;;;11.00;96.30;;;;;;5033694;28;20858;-78
2022/10/21 12:41:23;;;;;;;15.60;12.70;;;10.90;96.30;;;;;;5051845;28;20475;-80
2022/10/21 12:43:51;;;;;;;22.80;11.23;;;10.90;96.30;;;;;;5051858;28;20489;-79
2022/10/21 12:46:25;;;;;;;18.53;12.07;;;10.80;96.30;;;;;;5034055;28;20410;-80
2022/10/21 12:48:51;;;;;;;15.23;11.40;;;10.80;96.30;;;;;;5051552;28;20493;-80
2022/10/21 12:51:28;;;;;;;18.37;11.33;;;10.90;96.30;;;;;;5052058;28;20434;-80
2022/10/21 12:54:06;;;;;;;16.50;11.20;;;;;;;;;;5034788;28;20414;-82
2022/10/21 12:56:45;;;;;;;15.90;11.27;;;10.90;96.30;;;;;;5052799;28;20445;-81
2022/10/21 12:59:28;;;;;;;15.13;9.90;;;10.90;96.30;;;;;;5055470;28;20460;-81
2022/10/21 13:02:06;;;;;;;17.27;11.27;;;10.90;96.30;;;;;;5056557;28;20428;-80
2022/10/21 13:04:34;;;;;;;16.63;11.23;;;10.90;96.30;;;;;;5055816;28;20406;-80
2022/10/21 13:07:15;;;;;;;13.67;11.00;;;10.80;96.30;;;;;;5037541;28;20436;-79
2022/10/21 13:09:49;;;;;;;16.47;10.93;;;10.80;96.30;;;;;;5037654;28;20445;-80
2022/10/21 13:12:24;;;;;;;12.53;9.20;;;10.70;96.30;;;;;;5037490;28;20440;-78
2022/10/21 13:15:00;;;;;;;17.87;10.20;;;10.70;96.30;;;;;;5037493;28;20440;-78
2022/10/21 13:17:27;;;;;;;11.53;9.80;;;10.70;96.30;;;;;;5054742;28;20449;-78
2022/10/21 13:20:18;;;;;;;13.27;9.73;;;10.60;96.30;;;;;;5055518;28;20821;-79
2022/10/21 13:22:47;;;;;;;11.27;9.73;;;10.50;96.30;;;;;;5000689;28;20460;-79
2022/10/21 13:25:15;;;;;;;10.83;8.87;;;10.30;96.30;;;;;;5056710;28;20410;-81
2022/10/21 13:27:53;;;;;;;11.60;10.07;;;10.10;96.30;;;;;;5038160;28;20936;-81
2022/10/21 13:30:29;;;;;;;16.93;10.30;;;10.00;96.30;;;;;;5055171;28;20774;-79
2022/10/21 13:33:16;;;;;;;16.30;10.93;;;9.80;96.30;;;;;;5037230;28;20479;-77
2022/10/21 13:35:47;;;;;;;14.57;11.30;;;9.70;96.30;;;;;;5037116;28;20434;-78
2022/10/21 13:38:23;;;;;;;15.07;10.30;;;9.60;96.30;;;;;;5054320;28;20878;-76
2022/10/21 13:40:53;;;;;;;17.47;13.30;;;9.60;96.30;;;;;;5054890;28;20794;-77
2022/10/21 13:43:29;;;;;;;14.97;10.57;;;9.50;96.30;;;;;;5037102;28;20421;-77
2022/10/21 13:46:20;;;;;;;13.47;9.70;;;9.50;96.30;;;;;;5037172;28;20428;-78
2022/10/21 13:48:47;;;;;;;13.33;11.00;;;9.50;96.30;;;;;;5037810;28;20765;-80
2022/10/21 13:51:20;;;;;;;27.27;19.87;;;9.50;96.30;;;;;;5055288;28;20426;-78
2022/10/21 13:53:47;;;;;;;13.77;9.03;;;9.40;96.30;;;;;;5037951;28;20789;-80
2022/10/21 13:56:37;;;;;;;11.80;9.20;;;9.50;96.30;;;;;;5038420;28;20483;-81
2022/10/21 13:59:04;;;;;;;25.37;16.33;;;9.40;96.30;;;;;;5045204;28;20480;-81
2022/10/21 14:01:47;;;;;;;15.57;11.27;;;9.40;96.30;;;;;;5056632;28;20438;-80
2022/10/21 14:04:14;;;;;;;15.90;13.53;;;;;;;;;;5037763;28;20402;-82
2022/10/21 14:06:47;;;;;;;14.70;10.97;;;9.50;96.30;;;;;;5037145;28;20422;-82
2022/10/21 14:09:18;;;;;;;22.93;12.40;;;9.50;96.30;;;;;;5037236;28;20452;-81
2022/10/21 14:11:47;;;;;;;13.97;11.17;;;9.50;96.30;;;;;;5055021;28;20508;-82
2022/10/21 14:14:15;;;;;;;14.10;10.90;;;9.50;96.30;;;;;;5055529;28;20414;-84
2022/10/21 14:16:48;;;;;;;16.23;11.90;;;9.50;96.30;;;;;;5038097;28;20450;-83
2022/10/21 14:19:18;;;;;;;10.13;9.00;;;9.50;96.30;;;;;;5037313;28;20445;-82
2022/10/21 14:21:46;;;;;;;18.20;13.37;;;9.50;96.30;;;;;;5056420;28;20453;-82
2022/10/21 14:24:23;;;;;;;35.90;21.10;;;9.50;96.30;;;;;;5056696;28;20406;-82
2022/10/21 14:26:49;;;;;;;13.17;11.83;;;9.50;96.30;;;;;;5036932;28;20418;-81
2022/10/21 14:29:15;;;;;;;18.03;12.43;;;;;;;;;;5037386;28;20613;-80
2022/10/21 14:31:41;;;;;;;11.60;9.60;;;9.30;96.30;;;;;;5054353;28;21127;-76
2022/10/21 14:34:24;;;;;;;14.10;10.60;;;9.30;96.30;;;;;;5053789;28;20410;-78
2022/10/21 14:37:09;;;;;;;12.20;10.83;;;9.40;96.30;;;;;;5053470;28;20175;-77
2022/10/21 14:39:36;;;;;;;13.93;8.90;;;9.50;96.30;;;;;;5053780;28;20417;-76
2022/10/21 14:42:22;;;;;;;14.03;8.67;;;;;;;;;;5035722;28;20433;-76
2022/10/21 14:44:51;;;;;;;15.10;11.87;;;9.60;96.30;;;;;;5053614;28;20405;-77
2022/10/21 14:47:24;;;;;;;12.57;10.03;;;;;;;;;;5053073;28;20410;-77
2022/10/21 14:49:52;;;;;;;16.23;10.27;;;9.50;96.30;;;;;;5053817;28;20394;-78
2022/10/21 14:52:28;;;;;;;12.33;10.53;;;9.50;96.30;;;;;;5053707;28;20433;-81
2022/10/21 14:54:59;;;;;;;18.20;10.67;;;9.40;96.30;;;;;;5059949;28;20406;-81
2022/10/21 14:57:33;;;;;;;11.73;9.60;;;9.30;96.30;;;;;;5061166;28;20498;-81
2022/10/21 14:59:59;;;;;;;11.13;8.20;;;9.20;96.30;;;;;;5036864;28;20409;-82
2022/10/21 15:02:28;;;;;;;12.13;10.30;;;9.20;96.30;;;;;;5054208;28;20437;-82
2022/10/21 15:05:03;;;;;;;11.57;9.00;;;9.10;96.30;;;;;;5036223;28;20426;-82
2022/10/21 15:07:29;;;;;;;11.87;9.53;;;;;;;;;;5036057;28;20468;-82
2022/10/21 15:09:59;;;;;;;10.50;9.23;;;;;;;;;;5036239;28;20417;-82
2022/10/21 15:12:24;;;;;;;11.70;9.10;;;9.10;96.30;;;;;;5054498;28;20430;-82
2022/10/21 15:14:50;;;;;;;11.57;9.10;;;9.00;96.30;;;;;;5036070;28;20425;-81
2022/10/21 15:17:16;;;;;;;14.90;12.27;;;9.00;96.30;;;;;;5052994;28;20195;-81
2022/10/21 15:19:43;;;;;;;12.50;10.53;;;9.00;96.30;;;;;;5035824;28;20244;-82
2022/10/21 15:22:25;;;;;;;11.27;10.00;;;9.00;96.30;;;;;;5034951;28;20207;-82
2022/10/21 15:24:53;;;;;;;12.40;9.83;;;9.00;96.30;;;;;;5035646;28;20901;-82
2022/10/21 15:27:27;;;;;;;16.90;10.23;;;;;;;;;;5035028;28;20414;-82
2022/10/21 15:29:53;;;;;;;14.63;11.17;;;9.10;96.30;;;;;;5035236;28;20909;-83
2022/10/21 15:32:21;;;;;;;16.87;10.73;;;9.00;96.30;;;;;;5035638;28;20453;-81
2022/10/21 15:34:50;;;;;;;14.93;11.37;;;9.00;96.30;;;;;;5039433;28;20188;-82
2022/10/21 15:37:16;;;;;;;11.60;10.30;;;;;;;;;;5037345;28;20462;-82
2022/10/21 15:39:44;;;;;;;11.63;10.43;;;9.00;96.30;;;;;;5035951;28;20775;-82
2022/10/21 15:42:13;;;;;;;15.67;11.30;;;9.00;96.30;;;;;;5053302;28;20196;-82
2022/10/21 15:44:38;;;;;;;19.97;10.43;;;9.00;96.30;;;;;;5035303;28;20413;-82
2022/10/21 15:47:07;;;;;;;16.00;11.20;;;9.00;96.30;;;;;;5034936;28;20518;-82
2022/10/21 15:49:35;;;;;;;14.00;10.33;;;;;;;;;;5035412;28;20168;-82
2022/10/21 15:52:01;;;;;;;15.70;10.73;;;9.00;96.30;;;;;;5035473;28;20518;-82
2022/10/21 15:54:26;;;;;;;16.60;11.80;;;9.00;96.30;;;;;;5035341;28;20456;-82
2022/10/21 15:56:53;;;;;;;19.03;11.27;;;8.90;96.30;;;;;;5035342;28;20179;-82
2022/10/21 15:59:25;;;;;;;14.50;11.40;;;8.90;96.30;;;;;;5035328;28;20258;-82
2022/10/21 16:01:51;;;;;;;15.10;11.73;;;8.80;96.30;;;;;;5035291;28;20430;-82
2022/10/21 16:04:17;;;;;;;17.63;12.87;;;8.80;96.30;;;;;;5034834;28;20773;-82
2022/10/21 16:06:47;;;;;;;13.03;9.87;;;8.80;96.30;;;;;;5034998;28;20402;-82
2022/10/21 16:09:22;;;;;;;13.73;11.90;;;8.90;96.30;;;;;;5043947;28;20234;-82
2022/10/21 16:11:49;;;;;;;12.33;11.03;;;;;;;;;;5058596;28;20422;-83
2022/10/21 16:14:15;;;;;;;17.80;12.30;;;;;;;;;;5077840;28;20437;-82
2022/10/21 16:16:46;;;;;;;11.73;10.27;;;8.90;96.30;;;;;;5059541;28;20438;-84
2022/10/21 16:19:13;;;;;;;12.83;11.20;;;8.80;96.30;;;;;;5077245;28;20446;-83
2022/10/21 16:21:39;;;;;;;13.40;12.00;;;8.80;96.30;;;;;;5047609;28;20515;-82
2022/10/21 16:24:06;;;;;;;13.97;11.60;;;8.80;96.30;;;;;;5040602;28;20503;-82
2022/10/21 16:26:34;;;;;;;13.57;11.23;;;8.90;96.30;;;;;;5042213;28;20418;-82
2022/10/21 16:28:59;;;;;;;13.00;11.03;;;8.80;96.30;;;;;;5041861;28;20414;-82
2022/10/21 16:31:26;;;;;;;14.60;10.27;;;8.80;96.30;;;;;;5042866;28;20448;-82
2022/10/21 16:33:52;;;;;;;13.03;10.60;;;8.80;96.30;;;;;;5065334;28;20198;-81
2022/10/21 16:36:24;;;;;;;16.50;12.20;;;8.80;96.30;;;;;;5047320;28;20418;-82
2022/10/21 16:38:50;;;;;;;14.50;11.80;;;8.90;96.30;;;;;;5064718;28;20207;-82
2022/10/21 16:41:24;;;;;;;17.10;12.80;;;8.90;96.30;;;;;;5065105;28;20432;-81
2022/10/21 16:43:50;;;;;;;15.27;12.37;;;;;;;;;;5047667;28;20482;-81
2022/10/21 16:46:22;;;;;;;18.97;12.37;;;9.00;96.30;;;;;;5048268;28;20421;-81
2022/10/21 16:48:47;;;;;;;21.30;12.53;;;9.00;96.30;;;;;;5046989;28;20512;-81
2022/10/21 16:51:13;;;;;;;13.83;11.07;;;9.10;96.30;;;;;;5065660;28;20507;-81
2022/10/21 16:53:39;;;;;;;11.00;9.07;;;9.10;96.30;;;;;;5048227;28;20247;-81
2022/10/21 16:56:05;;;;;;;13.27;9.80;;;9.10;96.30;;;;;;5065332;28;20199;-82
2022/10/21 16:58:30;;;;;;;8.40;7.30;;;9.10;96.30;;;;;;5047126;28;20238;-81
2022/10/21 17:00:56;;;;;;;23.10;12.17;;;9.00;96.30;;;;;;5065579;28;20475;-81
2022/10/21 17:03:22;;;;;;;9.10;8.00;;;9.00;96.30;;;;;;5048201;28;20171;-81
2022/10/21 17:05:51;;;;;;;19.93;9.30;;;9.00;96.30;;;;;;5065441;28;20251;-81
2022/10/21 17:08:17;;;;;;;12.03;8.70;;;8.90;96.30;;;;;;5046277;28;20190;-82
2022/10/21 17:10:42;;;;;;;11.10;8.17;;;9.00;96.30;;;;;;5064855;28;20426;-81
2022/10/21 17:13:09;;;;;;;10.80;8.00;;;;;;;;;;5048468;28;20186;-81
2022/10/21 17:15:34;;;;;;;8.43;7.60;;;9.00;96.30;;;;;;5048106;28;20202;-81
2022/10/21 17:18:00;;;;;;;13.43;9.00;;;8.90;96.30;;;;;;5047089;28;20454;-81
2022/10/21 17:20:29;;;;;;;9.63;7.80;;;8.90;96.30;;;;;;5047690;28;20263;-81
2022/10/21 17:22:56;;;;;;;14.40;8.10;;;8.90;96.30;;;;;;5047052;28;20273;-81